sensor_id;sensor_type;location;lat;lon;timestamp;P1;durP1;ratioP1;P2;durP2;ratioP2
74632;SDS011;63139;52.018;8.552;2024-01-30T00:00:58;22.88;;;14.52;;
74632;SDS011;63139;52.018;8.552;2024-01-30T00:03:26;25.40;;;15.73;;
74632;SDS011;63139;52.018;8.552;2024-01-30T00:05:55;23.05;;;14.38;;
74632;SDS011;63139;52.018;8.552;2024-01-30T00:08:25;25.38;;;14.65;;
74632;SDS011;63139;52.018;8.552;2024-01-30T00:10:54;19.77;;;12.18;;
74632;SDS011;63139;52.018;8.552;2024-01-30T00:13:21;19.92;;;12.18;;
74632;SDS011;63139;52.018;8.552;2024-01-30T00:15:50;20.60;;;12.68;;
74632;SDS011;63139;52.018;8.552;2024-01-30T00:18:20;22.60;;;12.50;;
74632;SDS011;63139;52.018;8.552;2024-01-30T00:20:48;20.55;;;10.85;;
74632;SDS011;63139;52.018;8.552;2024-01-30T00:23:16;16.30;;;10.27;;
74632;SDS011;63139;52.018;8.552;2024-01-30T00:25:44;14.98;;;10.20;;
74632;SDS011;63139;52.018;8.552;2024-01-30T00:28:12;15.10;;;9.73;;
74632;SDS011;63139;52.018;8.552;2024-01-30T00:30:40;20.52;;;11.23;;
74632;SDS011;63139;52.018;8.552;2024-01-30T00:33:08;17.45;;;10.27;;
74632;SDS011;63139;52.018;8.552;2024-01-30T00:35:38;20.05;;;11.98;;
74632;SDS011;63139;52.018;8.552;2024-01-30T00:38:05;19.55;;;12.70;;
74632;SDS011;63139;52.018;8.552;2024-01-30T00:40:34;20.83;;;12.57;;
74632;SDS011;63139;52.018;8.552;2024-01-30T00:43:02;17.95;;;11.18;;
74632;SDS011;63139;52.018;8.552;2024-01-30T00:45:30;16.85;;;10.80;;
74632;SDS011;63139;52.018;8.552;2024-01-30T00:47:57;19.27;;;11.95;;
74632;SDS011;63139;52.018;8.552;2024-01-30T00:50:25;17.88;;;12.00;;
74632;SDS011;63139;52.018;8.552;2024-01-30T00:52:54;17.98;;;12.77;;
74632;SDS011;63139;52.018;8.552;2024-01-30T00:55:22;15.80;;;10.80;;
74632;SDS011;63139;52.018;8.552;2024-01-30T00:57:50;21.38;;;12.95;;
74632;SDS011;63139;52.018;8.552;2024-01-30T01:00:19;19.98;;;12.30;;
74632;SDS011;63139;52.018;8.552;2024-01-30T01:02:47;15.77;;;11.20;;
74632;SDS011;63139;52.018;8.552;2024-01-30T01:05:15;17.55;;;11.65;;
74632;SDS011;63139;52.018;8.552;2024-01-30T01:07:44;26.10;;;15.52;;
74632;SDS011;63139;52.018;8.552;2024-01-30T01:10:15;21.13;;;13.82;;
74632;SDS011;63139;52.018;8.552;2024-01-30T01:12:44;19.35;;;12.32;;
74632;SDS011;63139;52.018;8.552;2024-01-30T01:15:12;19.30;;;11.90;;
74632;SDS011;63139;52.018;8.552;2024-01-30T01:17:40;20.65;;;13.52;;
74632;SDS011;63139;52.018;8.552;2024-01-30T01:20:09;20.23;;;12.20;;
74632;SDS011;63139;52.018;8.552;2024-01-30T01:22:38;20.67;;;12.95;;
74632;SDS011;63139;52.018;8.552;2024-01-30T01:25:06;21.67;;;13.00;;
74632;SDS011;63139;52.018;8.552;2024-01-30T01:27:36;17.60;;;10.43;;
74632;SDS011;63139;52.018;8.552;2024-01-30T01:30:08;19.17;;;11.63;;
74632;SDS011;63139;52.018;8.552;2024-01-30T01:32:45;18.02;;;12.00;;
74632;SDS011;63139;52.018;8.552;2024-01-30T01:35:17;17.95;;;11.18;;
74632;SDS011;63139;52.018;8.552;2024-01-30T01:37:45;20.42;;;11.57;;
74632;SDS011;63139;52.018;8.552;2024-01-30T01:40:12;18.20;;;12.60;;
74632;SDS011;63139;52.018;8.552;2024-01-30T01:42:42;19.58;;;12.32;;
74632;SDS011;63139;52.018;8.552;2024-01-30T01:45:10;23.23;;;14.40;;
74632;SDS011;63139;52.018;8.552;2024-01-30T01:47:38;20.02;;;13.88;;
74632;SDS011;63139;52.018;8.552;2024-01-30T01:50:06;18.63;;;12.90;;
74632;SDS011;63139;52.018;8.552;2024-01-30T01:52:35;21.55;;;14.05;;
74632;SDS011;63139;52.018;8.552;2024-01-30T01:55:04;18.83;;;12.00;;
74632;SDS011;63139;52.018;8.552;2024-01-30T01:57:37;17.05;;;10.75;;
74632;SDS011;63139;52.018;8.552;2024-01-30T02:00:07;18.75;;;13.00;;
74632;SDS011;63139;52.018;8.552;2024-01-30T02:02:37;19.40;;;12.27;;
74632;SDS011;63139;52.018;8.552;2024-01-30T02:05:07;20.63;;;13.20;;
74632;SDS011;63139;52.018;8.552;2024-01-30T02:07:36;20.70;;;12.88;;
74632;SDS011;63139;52.018;8.552;2024-01-30T02:10:04;17.98;;;11.05;;
74632;SDS011;63139;52.018;8.552;2024-01-30T02:12:32;21.63;;;13.57;;
74632;SDS011;63139;52.018;8.552;2024-01-30T02:15:00;22.65;;;13.95;;
74632;SDS011;63139;52.018;8.552;2024-01-30T02:17:30;19.98;;;12.45;;
74632;SDS011;63139;52.018;8.552;2024-01-30T02:19:58;18.85;;;11.95;;
74632;SDS011;63139;52.018;8.552;2024-01-30T02:22:28;19.05;;;11.90;;
74632;SDS011;63139;52.018;8.552;2024-01-30T02:24:57;16.48;;;11.25;;
74632;SDS011;63139;52.018;8.552;2024-01-30T02:27:25;19.23;;;11.90;;
74632;SDS011;63139;52.018;8.552;2024-01-30T02:29:53;17.02;;;11.30;;
74632;SDS011;63139;52.018;8.552;2024-01-30T02:32:21;19.17;;;12.68;;
74632;SDS011;63139;52.018;8.552;2024-01-30T02:34:49;17.08;;;10.77;;
74632;SDS011;63139;52.018;8.552;2024-01-30T02:37:17;18.80;;;12.02;;
74632;SDS011;63139;52.018;8.552;2024-01-30T02:39:46;19.63;;;12.05;;
74632;SDS011;63139;52.018;8.552;2024-01-30T02:42:14;22.17;;;12.55;;
74632;SDS011;63139;52.018;8.552;2024-01-30T02:44:41;22.20;;;12.77;;
74632;SDS011;63139;52.018;8.552;2024-01-30T02:47:09;15.95;;;10.57;;
74632;SDS011;63139;52.018;8.552;2024-01-30T02:49:37;19.60;;;11.77;;
74632;SDS011;63139;52.018;8.552;2024-01-30T02:52:05;21.58;;;12.85;;
74632;SDS011;63139;52.018;8.552;2024-01-30T02:54:33;16.02;;;11.38;;
74632;SDS011;63139;52.018;8.552;2024-01-30T02:57:02;19.73;;;12.50;;
74632;SDS011;63139;52.018;8.552;2024-01-30T02:59:30;19.88;;;11.93;;
74632;SDS011;63139;52.018;8.552;2024-01-30T03:01:59;21.38;;;13.32;;
74632;SDS011;63139;52.018;8.552;2024-01-30T03:04:27;21.38;;;12.68;;
74632;SDS011;63139;52.018;8.552;2024-01-30T03:06:56;21.73;;;13.35;;
74632;SDS011;63139;52.018;8.552;2024-01-30T03:09:24;16.23;;;11.73;;
74632;SDS011;63139;52.018;8.552;2024-01-30T03:11:52;20.05;;;12.30;;
74632;SDS011;63139;52.018;8.552;2024-01-30T03:14:21;23.98;;;12.88;;
74632;SDS011;63139;52.018;8.552;2024-01-30T03:16:50;19.90;;;12.75;;
74632;SDS011;63139;52.018;8.552;2024-01-30T03:19:18;16.17;;;12.18;;
74632;SDS011;63139;52.018;8.552;2024-01-30T03:21:46;17.58;;;11.57;;
74632;SDS011;63139;52.018;8.552;2024-01-30T03:24:14;18.70;;;11.63;;
74632;SDS011;63139;52.018;8.552;2024-01-30T03:26:42;19.63;;;12.13;;
74632;SDS011;63139;52.018;8.552;2024-01-30T03:29:10;19.80;;;12.15;;
74632;SDS011;63139;52.018;8.552;2024-01-30T03:31:39;17.98;;;12.00;;
74632;SDS011;63139;52.018;8.552;2024-01-30T03:34:07;14.38;;;10.35;;
74632;SDS011;63139;52.018;8.552;2024-01-30T03:36:35;20.02;;;12.50;;
74632;SDS011;63139;52.018;8.552;2024-01-30T03:39:03;19.80;;;12.07;;
74632;SDS011;63139;52.018;8.552;2024-01-30T03:41:30;21.15;;;12.32;;
74632;SDS011;63139;52.018;8.552;2024-01-30T03:43:58;22.60;;;12.80;;
74632;SDS011;63139;52.018;8.552;2024-01-30T03:46:26;17.13;;;11.15;;
74632;SDS011;63139;52.018;8.552;2024-01-30T03:48:55;18.30;;;10.77;;
74632;SDS011;63139;52.018;8.552;2024-01-30T03:51:23;19.35;;;11.60;;
74632;SDS011;63139;52.018;8.552;2024-01-30T03:53:51;15.25;;;9.23;;
74632;SDS011;63139;52.018;8.552;2024-01-30T03:56:19;16.70;;;9.98;;
74632;SDS011;63139;52.018;8.552;2024-01-30T03:58:47;17.15;;;9.40;;
74632;SDS011;63139;52.018;8.552;2024-01-30T04:01:15;16.05;;;9.98;;
74632;SDS011;63139;52.018;8.552;2024-01-30T04:03:42;16.52;;;10.45;;
74632;SDS011;63139;52.018;8.552;2024-01-30T04:06:12;16.80;;;10.10;;
74632;SDS011;63139;52.018;8.552;2024-01-30T04:08:40;20.45;;;10.38;;
74632;SDS011;63139;52.018;8.552;2024-01-30T04:11:08;14.25;;;9.57;;
74632;SDS011;63139;52.018;8.552;2024-01-30T04:13:37;14.40;;;9.38;;
74632;SDS011;63139;52.018;8.552;2024-01-30T04:16:06;12.48;;;8.45;;
74632;SDS011;63139;52.018;8.552;2024-01-30T04:18:34;14.57;;;9.05;;
74632;SDS011;63139;52.018;8.552;2024-01-30T04:21:02;15.98;;;9.50;;
74632;SDS011;63139;52.018;8.552;2024-01-30T04:23:31;16.45;;;9.10;;
74632;SDS011;63139;52.018;8.552;2024-01-30T04:25:59;16.33;;;9.63;;
74632;SDS011;63139;52.018;8.552;2024-01-30T04:28:27;11.77;;;8.13;;
74632;SDS011;63139;52.018;8.552;2024-01-30T04:30:55;14.93;;;9.38;;
74632;SDS011;63139;52.018;8.552;2024-01-30T04:33:23;12.07;;;8.00;;
74632;SDS011;63139;52.018;8.552;2024-01-30T04:35:50;12.68;;;8.90;;
74632;SDS011;63139;52.018;8.552;2024-01-30T04:38:19;12.70;;;8.25;;
74632;SDS011;63139;52.018;8.552;2024-01-30T04:40:48;13.25;;;8.50;;
74632;SDS011;63139;52.018;8.552;2024-01-30T04:43:16;14.70;;;9.07;;
74632;SDS011;63139;52.018;8.552;2024-01-30T04:45:46;15.70;;;9.35;;
74632;SDS011;63139;52.018;8.552;2024-01-30T04:48:14;16.50;;;9.10;;
74632;SDS011;63139;52.018;8.552;2024-01-30T04:50:42;14.85;;;8.38;;
74632;SDS011;63139;52.018;8.552;2024-01-30T04:53:10;14.13;;;8.43;;
74632;SDS011;63139;52.018;8.552;2024-01-30T04:55:40;13.75;;;8.38;;
74632;SDS011;63139;52.018;8.552;2024-01-30T04:58:10;12.25;;;7.90;;
74632;SDS011;63139;52.018;8.552;2024-01-30T05:00:38;11.00;;;7.38;;
74632;SDS011;63139;52.018;8.552;2024-01-30T05:03:06;13.18;;;8.10;;
74632;SDS011;63139;52.018;8.552;2024-01-30T05:05:34;12.45;;;8.23;;
74632;SDS011;63139;52.018;8.552;2024-01-30T05:08:02;12.40;;;7.45;;
74632;SDS011;63139;52.018;8.552;2024-01-30T05:10:31;11.98;;;7.53;;
74632;SDS011;63139;52.018;8.552;2024-01-30T05:13:00;15.30;;;8.93;;
74632;SDS011;63139;52.018;8.552;2024-01-30T05:15:30;15.10;;;8.40;;
74632;SDS011;63139;52.018;8.552;2024-01-30T05:17:57;13.35;;;8.63;;
74632;SDS011;63139;52.018;8.552;2024-01-30T05:20:26;15.13;;;8.88;;
74632;SDS011;63139;52.018;8.552;2024-01-30T05:22:55;12.43;;;8.15;;
74632;SDS011;63139;52.018;8.552;2024-01-30T05:25:23;17.52;;;9.43;;
74632;SDS011;63139;52.018;8.552;2024-01-30T05:27:51;15.05;;;8.30;;
74632;SDS011;63139;52.018;8.552;2024-01-30T05:30:19;13.57;;;8.20;;
74632;SDS011;63139;52.018;8.552;2024-01-30T05:32:48;11.30;;;7.93;;
74632;SDS011;63139;52.018;8.552;2024-01-30T05:35:17;14.02;;;8.77;;
74632;SDS011;63139;52.018;8.552;2024-01-30T05:37:47;10.60;;;7.82;;
74632;SDS011;63139;52.018;8.552;2024-01-30T05:40:16;12.70;;;8.10;;
74632;SDS011;63139;52.018;8.552;2024-01-30T05:42:44;14.05;;;8.18;;
74632;SDS011;63139;52.018;8.552;2024-01-30T05:45:13;11.05;;;7.25;;
74632;SDS011;63139;52.018;8.552;2024-01-30T05:47:41;12.20;;;8.50;;
74632;SDS011;63139;52.018;8.552;2024-01-30T05:50:11;12.18;;;8.52;;
74632;SDS011;63139;52.018;8.552;2024-01-30T05:52:39;11.60;;;8.00;;
74632;SDS011;63139;52.018;8.552;2024-01-30T05:55:07;16.10;;;9.02;;
74632;SDS011;63139;52.018;8.552;2024-01-30T05:57:36;12.60;;;8.23;;
74632;SDS011;63139;52.018;8.552;2024-01-30T06:00:04;13.48;;;7.82;;
74632;SDS011;63139;52.018;8.552;2024-01-30T06:02:33;12.02;;;7.90;;
74632;SDS011;63139;52.018;8.552;2024-01-30T06:05:01;12.27;;;7.38;;
74632;SDS011;63139;52.018;8.552;2024-01-30T06:07:31;11.40;;;7.30;;
74632;SDS011;63139;52.018;8.552;2024-01-30T06:10:02;11.60;;;7.65;;
74632;SDS011;63139;52.018;8.552;2024-01-30T06:12:31;11.18;;;7.70;;
74632;SDS011;63139;52.018;8.552;2024-01-30T06:14:58;12.73;;;8.05;;
74632;SDS011;63139;52.018;8.552;2024-01-30T06:17:26;12.80;;;8.07;;
74632;SDS011;63139;52.018;8.552;2024-01-30T06:19:54;16.40;;;8.82;;
74632;SDS011;63139;52.018;8.552;2024-01-30T06:22:22;15.95;;;9.00;;
74632;SDS011;63139;52.018;8.552;2024-01-30T06:24:52;10.95;;;7.90;;
74632;SDS011;63139;52.018;8.552;2024-01-30T06:27:20;11.45;;;8.00;;
74632;SDS011;63139;52.018;8.552;2024-01-30T06:29:48;12.65;;;8.02;;
74632;SDS011;63139;52.018;8.552;2024-01-30T06:32:16;10.98;;;7.32;;
74632;SDS011;63139;52.018;8.552;2024-01-30T06:34:43;9.88;;;6.90;;
74632;SDS011;63139;52.018;8.552;2024-01-30T06:37:11;11.80;;;7.10;;
74632;SDS011;63139;52.018;8.552;2024-01-30T06:39:39;11.27;;;7.90;;
74632;SDS011;63139;52.018;8.552;2024-01-30T06:42:09;12.52;;;7.80;;
74632;SDS011;63139;52.018;8.552;2024-01-30T06:44:38;14.98;;;8.88;;
74632;SDS011;63139;52.018;8.552;2024-01-30T06:47:06;12.85;;;8.18;;
74632;SDS011;63139;52.018;8.552;2024-01-30T06:49:34;12.45;;;7.65;;
74632;SDS011;63139;52.018;8.552;2024-01-30T06:52:05;12.20;;;8.15;;
74632;SDS011;63139;52.018;8.552;2024-01-30T06:54:33;15.35;;;8.27;;
74632;SDS011;63139;52.018;8.552;2024-01-30T06:57:03;12.63;;;7.95;;
74632;SDS011;63139;52.018;8.552;2024-01-30T06:59:34;10.85;;;6.90;;
74632;SDS011;63139;52.018;8.552;2024-01-30T07:02:02;15.32;;;9.63;;
74632;SDS011;63139;52.018;8.552;2024-01-30T07:04:30;12.05;;;6.97;;
74632;SDS011;63139;52.018;8.552;2024-01-30T07:06:59;12.50;;;7.53;;
74632;SDS011;63139;52.018;8.552;2024-01-30T07:09:27;15.57;;;9.25;;
74632;SDS011;63139;52.018;8.552;2024-01-30T07:11:56;13.63;;;7.88;;
74632;SDS011;63139;52.018;8.552;2024-01-30T07:14:25;11.45;;;7.85;;
74632;SDS011;63139;52.018;8.552;2024-01-30T07:16:54;12.43;;;8.13;;
74632;SDS011;63139;52.018;8.552;2024-01-30T07:19:22;11.02;;;7.70;;
74632;SDS011;63139;52.018;8.552;2024-01-30T07:21:50;14.32;;;8.00;;
74632;SDS011;63139;52.018;8.552;2024-01-30T07:24:17;14.73;;;8.88;;
74632;SDS011;63139;52.018;8.552;2024-01-30T07:26:45;12.00;;;7.75;;
74632;SDS011;63139;52.018;8.552;2024-01-30T07:29:13;14.07;;;8.02;;
74632;SDS011;63139;52.018;8.552;2024-01-30T07:31:41;10.88;;;7.13;;
74632;SDS011;63139;52.018;8.552;2024-01-30T07:34:11;13.20;;;6.93;;
74632;SDS011;63139;52.018;8.552;2024-01-30T07:36:39;10.95;;;7.88;;
74632;SDS011;63139;52.018;8.552;2024-01-30T07:39:07;8.80;;;6.15;;
74632;SDS011;63139;52.018;8.552;2024-01-30T07:41:36;12.38;;;7.60;;
74632;SDS011;63139;52.018;8.552;2024-01-30T07:44:05;11.98;;;7.82;;
74632;SDS011;63139;52.018;8.552;2024-01-30T07:46:32;9.40;;;6.70;;
74632;SDS011;63139;52.018;8.552;2024-01-30T07:49:01;11.15;;;6.60;;
74632;SDS011;63139;52.018;8.552;2024-01-30T07:51:30;11.15;;;7.75;;
74632;SDS011;63139;52.018;8.552;2024-01-30T07:53:59;12.27;;;7.47;;
74632;SDS011;63139;52.018;8.552;2024-01-30T07:56:27;8.93;;;6.65;;
74632;SDS011;63139;52.018;8.552;2024-01-30T07:58:55;11.27;;;6.75;;
74632;SDS011;63139;52.018;8.552;2024-01-30T08:01:23;12.15;;;7.68;;
74632;SDS011;63139;52.018;8.552;2024-01-30T08:03:51;11.00;;;7.30;;
74632;SDS011;63139;52.018;8.552;2024-01-30T08:06:20;11.30;;;6.57;;
74632;SDS011;63139;52.018;8.552;2024-01-30T08:08:49;9.93;;;6.07;;
74632;SDS011;63139;52.018;8.552;2024-01-30T08:11:19;11.98;;;7.03;;
74632;SDS011;63139;52.018;8.552;2024-01-30T08:13:52;12.75;;;6.93;;
74632;SDS011;63139;52.018;8.552;2024-01-30T08:16:20;10.40;;;6.75;;
74632;SDS011;63139;52.018;8.552;2024-01-30T08:18:47;10.45;;;6.95;;
74632;SDS011;63139;52.018;8.552;2024-01-30T08:21:15;9.57;;;6.38;;
74632;SDS011;63139;52.018;8.552;2024-01-30T08:23:43;12.07;;;6.93;;
74632;SDS011;63139;52.018;8.552;2024-01-30T08:26:13;9.43;;;6.55;;
74632;SDS011;63139;52.018;8.552;2024-01-30T08:28:42;10.30;;;7.13;;
74632;SDS011;63139;52.018;8.552;2024-01-30T08:31:10;9.25;;;6.25;;
74632;SDS011;63139;52.018;8.552;2024-01-30T08:33:38;10.73;;;6.82;;
74632;SDS011;63139;52.018;8.552;2024-01-30T08:36:09;10.93;;;6.30;;
74632;SDS011;63139;52.018;8.552;2024-01-30T08:38:37;13.13;;;7.15;;
74632;SDS011;63139;52.018;8.552;2024-01-30T08:41:05;11.48;;;6.80;;
74632;SDS011;63139;52.018;8.552;2024-01-30T08:43:37;9.68;;;6.10;;
74632;SDS011;63139;52.018;8.552;2024-01-30T08:46:05;8.05;;;5.85;;
74632;SDS011;63139;52.018;8.552;2024-01-30T08:48:35;10.93;;;7.28;;
74632;SDS011;63139;52.018;8.552;2024-01-30T08:51:04;9.57;;;6.90;;
74632;SDS011;63139;52.018;8.552;2024-01-30T08:53:34;9.32;;;6.43;;
74632;SDS011;63139;52.018;8.552;2024-01-30T08:56:03;8.90;;;5.78;;
74632;SDS011;63139;52.018;8.552;2024-01-30T08:58:31;9.88;;;6.78;;
74632;SDS011;63139;52.018;8.552;2024-01-30T09:01:00;11.73;;;6.97;;
74632;SDS011;63139;52.018;8.552;2024-01-30T09:03:30;12.52;;;6.60;;
74632;SDS011;63139;52.018;8.552;2024-01-30T09:05:58;9.10;;;6.45;;
74632;SDS011;63139;52.018;8.552;2024-01-30T09:08:26;12.73;;;7.07;;
74632;SDS011;63139;52.018;8.552;2024-01-30T09:10:54;9.93;;;6.60;;
74632;SDS011;63139;52.018;8.552;2024-01-30T09:13:22;12.20;;;6.95;;
74632;SDS011;63139;52.018;8.552;2024-01-30T09:15:50;9.18;;;5.65;;
74632;SDS011;63139;52.018;8.552;2024-01-30T09:18:20;8.90;;;5.15;;
74632;SDS011;63139;52.018;8.552;2024-01-30T09:20:49;7.47;;;5.03;;
74632;SDS011;63139;52.018;8.552;2024-01-30T09:23:16;9.07;;;5.57;;
74632;SDS011;63139;52.018;8.552;2024-01-30T09:25:46;6.00;;;4.32;;
74632;SDS011;63139;52.018;8.552;2024-01-30T09:28:14;5.88;;;4.40;;
74632;SDS011;63139;52.018;8.552;2024-01-30T09:30:43;9.32;;;4.30;;
74632;SDS011;63139;52.018;8.552;2024-01-30T09:33:11;8.13;;;4.57;;
74632;SDS011;63139;52.018;8.552;2024-01-30T09:35:40;7.82;;;4.65;;
74632;SDS011;63139;52.018;8.552;2024-01-30T09:38:08;7.13;;;4.25;;
74632;SDS011;63139;52.018;8.552;2024-01-30T09:40:37;5.90;;;4.32;;
74632;SDS011;63139;52.018;8.552;2024-01-30T09:43:05;6.68;;;4.38;;
74632;SDS011;63139;52.018;8.552;2024-01-30T09:45:33;6.93;;;4.50;;
74632;SDS011;63139;52.018;8.552;2024-01-30T09:48:02;7.72;;;4.60;;
74632;SDS011;63139;52.018;8.552;2024-01-30T09:50:31;5.53;;;4.00;;
74632;SDS011;63139;52.018;8.552;2024-01-30T09:53:01;6.15;;;3.90;;
74632;SDS011;63139;52.018;8.552;2024-01-30T09:55:29;5.97;;;4.30;;
74632;SDS011;63139;52.018;8.552;2024-01-30T09:57:57;9.07;;;5.10;;
74632;SDS011;63139;52.018;8.552;2024-01-30T10:00:26;8.10;;;4.00;;
74632;SDS011;63139;52.018;8.552;2024-01-30T10:02:54;7.28;;;4.63;;
74632;SDS011;63139;52.018;8.552;2024-01-30T10:05:22;6.65;;;4.75;;
74632;SDS011;63139;52.018;8.552;2024-01-30T10:07:54;5.28;;;3.95;;
74632;SDS011;63139;52.018;8.552;2024-01-30T10:10:24;7.72;;;4.30;;
74632;SDS011;63139;52.018;8.552;2024-01-30T10:12:52;5.97;;;4.15;;
74632;SDS011;63139;52.018;8.552;2024-01-30T10:15:21;7.72;;;4.30;;
74632;SDS011;63139;52.018;8.552;2024-01-30T10:17:49;5.28;;;4.03;;
74632;SDS011;63139;52.018;8.552;2024-01-30T10:20:17;5.15;;;4.05;;
74632;SDS011;63139;52.018;8.552;2024-01-30T10:22:45;9.90;;;4.50;;
74632;SDS011;63139;52.018;8.552;2024-01-30T10:25:14;6.55;;;4.22;;
74632;SDS011;63139;52.018;8.552;2024-01-30T10:27:44;8.57;;;4.45;;
74632;SDS011;63139;52.018;8.552;2024-01-30T10:30:12;6.60;;;4.50;;
74632;SDS011;63139;52.018;8.552;2024-01-30T10:32:41;6.45;;;4.03;;
74632;SDS011;63139;52.018;8.552;2024-01-30T10:35:08;6.93;;;4.35;;
74632;SDS011;63139;52.018;8.552;2024-01-30T10:37:38;7.32;;;4.30;;
74632;SDS011;63139;52.018;8.552;2024-01-30T10:40:07;6.75;;;4.32;;
74632;SDS011;63139;52.018;8.552;2024-01-30T10:42:36;5.00;;;4.30;;
74632;SDS011;63139;52.018;8.552;2024-01-30T10:45:08;8.38;;;4.47;;
74632;SDS011;63139;52.018;8.552;2024-01-30T10:47:39;6.80;;;4.10;;
74632;SDS011;63139;52.018;8.552;2024-01-30T10:50:08;6.88;;;4.60;;
74632;SDS011;63139;52.018;8.552;2024-01-30T10:52:37;5.93;;;4.13;;
74632;SDS011;63139;52.018;8.552;2024-01-30T10:55:06;6.85;;;4.18;;
74632;SDS011;63139;52.018;8.552;2024-01-30T10:57:35;6.45;;;4.55;;
74632;SDS011;63139;52.018;8.552;2024-01-30T11:00:04;8.85;;;4.55;;
74632;SDS011;63139;52.018;8.552;2024-01-30T11:02:39;11.52;;;4.60;;
74632;SDS011;63139;52.018;8.552;2024-01-30T11:05:09;6.45;;;4.60;;
74632;SDS011;63139;52.018;8.552;2024-01-30T11:07:38;5.25;;;4.28;;
74632;SDS011;63139;52.018;8.552;2024-01-30T11:10:08;7.20;;;4.30;;
74632;SDS011;63139;52.018;8.552;2024-01-30T11:12:40;7.00;;;4.25;;
74632;SDS011;63139;52.018;8.552;2024-01-30T11:15:12;8.70;;;5.45;;
74632;SDS011;63139;52.018;8.552;2024-01-30T11:17:49;7.50;;;4.40;;
74632;SDS011;63139;52.018;8.552;2024-01-30T11:20:19;8.00;;;4.60;;
74632;SDS011;63139;52.018;8.552;2024-01-30T11:22:51;8.52;;;5.07;;
74632;SDS011;63139;52.018;8.552;2024-01-30T11:25:20;7.25;;;4.50;;
74632;SDS011;63139;52.018;8.552;2024-01-30T11:27:50;6.32;;;4.90;;
74632;SDS011;63139;52.018;8.552;2024-01-30T11:30:22;6.72;;;4.53;;
74632;SDS011;63139;52.018;8.552;2024-01-30T11:33:00;10.15;;;4.88;;
74632;SDS011;63139;52.018;8.552;2024-01-30T11:35:31;6.28;;;4.70;;
74632;SDS011;63139;52.018;8.552;2024-01-30T11:38:01;8.27;;;5.15;;
74632;SDS011;63139;52.018;8.552;2024-01-30T11:40:30;7.13;;;4.82;;
74632;SDS011;63139;52.018;8.552;2024-01-30T11:43:00;6.53;;;4.97;;
74632;SDS011;63139;52.018;8.552;2024-01-30T11:45:29;6.18;;;4.95;;
74632;SDS011;63139;52.018;8.552;2024-01-30T11:47:59;8.50;;;5.72;;
74632;SDS011;63139;52.018;8.552;2024-01-30T11:50:29;8.23;;;4.80;;
74632;SDS011;63139;52.018;8.552;2024-01-30T11:52:58;6.45;;;5.13;;
74632;SDS011;63139;52.018;8.552;2024-01-30T11:55:28;9.07;;;4.68;;
74632;SDS011;63139;52.018;8.552;2024-01-30T11:58:01;7.53;;;4.75;;
74632;SDS011;63139;52.018;8.552;2024-01-30T12:00:30;9.38;;;5.40;;
74632;SDS011;63139;52.018;8.552;2024-01-30T12:03:02;6.82;;;5.15;;
74632;SDS011;63139;52.018;8.552;2024-01-30T12:05:33;8.27;;;5.32;;
74632;SDS011;63139;52.018;8.552;2024-01-30T12:08:02;10.25;;;6.07;;
74632;SDS011;63139;52.018;8.552;2024-01-30T12:10:31;10.20;;;5.47;;
74632;SDS011;63139;52.018;8.552;2024-01-30T12:12:59;8.32;;;5.50;;
74632;SDS011;63139;52.018;8.552;2024-01-30T12:15:29;7.95;;;5.50;;
74632;SDS011;63139;52.018;8.552;2024-01-30T12:18:05;9.75;;;5.95;;
74632;SDS011;63139;52.018;8.552;2024-01-30T12:20:34;7.75;;;5.75;;
74632;SDS011;63139;52.018;8.552;2024-01-30T12:23:02;9.15;;;5.88;;
74632;SDS011;63139;52.018;8.552;2024-01-30T12:25:30;10.18;;;5.53;;
74632;SDS011;63139;52.018;8.552;2024-01-30T12:27:58;10.20;;;5.78;;
74632;SDS011;63139;52.018;8.552;2024-01-30T12:30:27;9.80;;;5.93;;
74632;SDS011;63139;52.018;8.552;2024-01-30T12:32:55;10.20;;;5.68;;
74632;SDS011;63139;52.018;8.552;2024-01-30T12:35:25;14.38;;;5.63;;
74632;SDS011;63139;52.018;8.552;2024-01-30T12:37:58;7.88;;;5.28;;
74632;SDS011;63139;52.018;8.552;2024-01-30T12:40:27;8.27;;;5.65;;
74632;SDS011;63139;52.018;8.552;2024-01-30T12:42:55;8.50;;;5.25;;
74632;SDS011;63139;52.018;8.552;2024-01-30T12:45:24;10.40;;;5.93;;
74632;SDS011;63139;52.018;8.552;2024-01-30T12:47:52;9.15;;;6.13;;
74632;SDS011;63139;52.018;8.552;2024-01-30T12:50:21;6.88;;;5.18;;
74632;SDS011;63139;52.018;8.552;2024-01-30T12:52:50;7.93;;;5.10;;
74632;SDS011;63139;52.018;8.552;2024-01-30T12:55:19;6.80;;;5.50;;
74632;SDS011;63139;52.018;8.552;2024-01-30T12:57:47;8.98;;;5.80;;
74632;SDS011;63139;52.018;8.552;2024-01-30T13:00:15;8.35;;;5.28;;
74632;SDS011;63139;52.018;8.552;2024-01-30T13:02:44;7.82;;;5.13;;
74632;SDS011;63139;52.018;8.552;2024-01-30T13:05:12;9.10;;;5.22;;
74632;SDS011;63139;52.018;8.552;2024-01-30T13:07:41;8.80;;;5.32;;
74632;SDS011;63139;52.018;8.552;2024-01-30T13:10:11;11.85;;;9.52;;
74632;SDS011;63139;52.018;8.552;2024-01-30T13:12:39;10.27;;;6.30;;
74632;SDS011;63139;52.018;8.552;2024-01-30T13:15:07;10.50;;;5.72;;
74632;SDS011;63139;52.018;8.552;2024-01-30T13:17:35;7.50;;;5.78;;
74632;SDS011;63139;52.018;8.552;2024-01-30T13:20:03;7.82;;;5.57;;
74632;SDS011;63139;52.018;8.552;2024-01-30T13:22:37;7.55;;;5.32;;
74632;SDS011;63139;52.018;8.552;2024-01-30T13:25:06;11.07;;;5.78;;
74632;SDS011;63139;52.018;8.552;2024-01-30T13:27:37;8.77;;;5.70;;
74632;SDS011;63139;52.018;8.552;2024-01-30T13:30:06;10.05;;;6.05;;
74632;SDS011;63139;52.018;8.552;2024-01-30T13:32:35;10.73;;;5.90;;
74632;SDS011;63139;52.018;8.552;2024-01-30T13:35:04;10.45;;;6.50;;
74632;SDS011;63139;52.018;8.552;2024-01-30T13:37:33;8.52;;;5.43;;
74632;SDS011;63139;52.018;8.552;2024-01-30T13:40:01;9.82;;;5.93;;
74632;SDS011;63139;52.018;8.552;2024-01-30T13:42:33;9.52;;;5.78;;
74632;SDS011;63139;52.018;8.552;2024-01-30T13:45:02;10.07;;;5.70;;
74632;SDS011;63139;52.018;8.552;2024-01-30T13:47:31;12.60;;;6.07;;
74632;SDS011;63139;52.018;8.552;2024-01-30T13:49:59;10.07;;;6.45;;
74632;SDS011;63139;52.018;8.552;2024-01-30T13:52:27;12.38;;;6.63;;
74632;SDS011;63139;52.018;8.552;2024-01-30T13:55:03;8.60;;;5.75;;
74632;SDS011;63139;52.018;8.552;2024-01-30T13:57:31;12.27;;;6.55;;
74632;SDS011;63139;52.018;8.552;2024-01-30T14:00:03;8.45;;;6.32;;
74632;SDS011;63139;52.018;8.552;2024-01-30T14:02:42;14.02;;;7.55;;
74632;SDS011;63139;52.018;8.552;2024-01-30T14:05:10;10.40;;;6.28;;
74632;SDS011;63139;52.018;8.552;2024-01-30T14:07:40;10.40;;;6.85;;
74632;SDS011;63139;52.018;8.552;2024-01-30T14:10:09;13.73;;;6.47;;
74632;SDS011;63139;52.018;8.552;2024-01-30T14:12:41;16.25;;;6.35;;
74632;SDS011;63139;52.018;8.552;2024-01-30T14:15:11;10.00;;;6.25;;
74632;SDS011;63139;52.018;8.552;2024-01-30T14:17:53;13.70;;;6.68;;
74632;SDS011;63139;52.018;8.552;2024-01-30T14:20:22;9.75;;;6.20;;
74632;SDS011;63139;52.018;8.552;2024-01-30T14:22:51;10.68;;;5.82;;
74632;SDS011;63139;52.018;8.552;2024-01-30T14:25:19;10.10;;;6.22;;
74632;SDS011;63139;52.018;8.552;2024-01-30T14:27:48;13.98;;;6.75;;
74632;SDS011;63139;52.018;8.552;2024-01-30T14:30:18;12.75;;;6.72;;
74632;SDS011;63139;52.018;8.552;2024-01-30T14:32:46;19.27;;;7.13;;
74632;SDS011;63139;52.018;8.552;2024-01-30T14:35:15;14.13;;;7.28;;
74632;SDS011;63139;52.018;8.552;2024-01-30T14:37:43;10.68;;;6.82;;
74632;SDS011;63139;52.018;8.552;2024-01-30T14:40:11;11.55;;;6.65;;
74632;SDS011;63139;52.018;8.552;2024-01-30T14:42:39;13.13;;;7.32;;
74632;SDS011;63139;52.018;8.552;2024-01-30T14:45:07;9.77;;;6.50;;